Time;durP1;ratioP1;P1;durP2;ratioP2;P2;SDS_P1;SDS_P2;PMS_P1;PMS_P2;Temp;Humidity;BMP_temperature;BMP_pressure;BME280_temperature;BME280_humidity;BME280_pressure;Samples;Min_cycle;Max_cycle;Signal;HPM_P1;HPM_P2
2022/05/10 00:02:01;;;;;;;10.55;5.30;;;;;;;12.36;72.52;93290.03;4957478;28;20022;-81
2022/05/10 00:04:27;;;;;;;13.98;5.80;;;;;;;12.34;72.62;93290.34;4992005;28;20472;-79
2022/05/10 00:06:54;;;;;;;11.02;5.10;;;;;;;12.24;73.02;93283.31;5020927;28;20048;-81
2022/05/10 00:09:22;;;;;;;16.15;5.63;;;;;;;12.27;73.27;93288.03;5009165;28;20046;-81
2022/05/10 00:11:49;;;;;;;10.68;4.97;;;;;;;12.23;73.52;93279.16;4989478;28;20034;-81
2022/05/10 00:14:15;;;;;;;11.00;5.20;;;;;;;12.22;74.03;93282.03;4957255;28;20054;-82
2022/05/10 00:16:43;;;;;;;14.27;5.03;;;;;;;12.18;73.80;93284.44;5023321;28;20069;-81
2022/05/10 00:19:12;;;;;;;11.85;4.90;;;;;;;12.15;73.73;93273.72;5009149;28;20045;-81
2022/05/10 00:21:39;;;;;;;11.85;4.93;;;;;;;12.17;74.09;93279.47;5002146;28;20033;-79
2022/05/10 00:24:05;;;;;;;10.38;5.22;;;;;;;12.14;74.48;93274.78;5000727;28;20050;-81
2022/05/10 00:26:31;;;;;;;11.68;4.80;;;;;;;12.14;74.16;93275.56;5002515;28;20031;-81
2022/05/10 00:28:56;;;;;;;8.70;4.38;;;;;;;12.13;74.48;93276.59;4988878;28;20034;-81
2022/05/10 00:31:22;;;;;;;8.68;4.72;;;;;;;12.11;74.61;93273.47;5022727;28;20133;-81
2022/05/10 00:33:48;;;;;;;13.27;4.53;;;;;;;12.11;74.93;93272.69;5026072;28;20042;-81
2022/05/10 00:36:22;;;;;;;18.48;4.90;;;;;;;12.07;75.52;93269.84;5005695;28;20046;-80
2022/05/10 00:38:48;;;;;;;7.97;4.70;;;;;;;12.02;75.82;93269.88;4988688;28;20098;-81
2022/05/10 00:41:36;;;;;;;10.38;4.90;;;;;;;12.00;75.99;93274.59;4971308;28;20093;-81
2022/05/10 00:44:12;;;;;;;12.30;4.40;;;;;;;11.98;76.10;93274.91;5001089;28;20061;-81
2022/05/10 00:46:44;;;;;;;14.27;5.10;;;;;;;11.93;76.18;93266.28;5004022;28;20065;-81
2022/05/10 00:49:45;;;;;;;15.07;5.03;;;;;;;11.90;76.16;93262.38;5004726;28;20030;-81
2022/05/10 00:52:24;;;;;;;12.13;4.43;;;;;;;11.87;76.59;93268.94;4999104;28;20073;-80
2022/05/10 00:54:58;;;;;;;8.50;4.70;;;;;;;11.82;77.01;93270.78;4986166;28;20065;-80
2022/05/10 00:57:38;;;;;;;8.68;4.72;;;;;;;11.79;77.02;93261.63;5002432;28;20030;-80
2022/05/10 01:00:03;;;;;;;9.48;4.72;;;;;;;11.77;77.39;93263.72;5004668;28;20508;-81
2022/05/10 01:02:42;;;;;;;11.15;4.85;;;;;;;11.78;77.00;93256.66;4986657;28;20061;-80
2022/05/10 01:05:21;;;;;;;9.75;4.65;;;;;;;11.77;76.98;93263.72;4986359;28;20058;-81
2022/05/10 01:08:03;;;;;;;8.55;4.47;;;;;;;11.76;76.97;93264.81;5002233;28;20041;-81
2022/05/10 01:10:49;;;;;;;14.57;4.70;;;;;;;11.79;76.56;93266.88;5003903;28;20670;-81
2022/05/10 01:13:30;;;;;;;8.88;4.38;;;;;;;11.81;76.33;93264.75;4997522;28;20026;-81
2022/05/10 01:16:05;;;;;;;12.43;4.78;;;;;;;11.77;76.71;93258.50;4977841;28;20428;-81
2022/05/10 01:18:31;;;;;;;11.80;4.70;;;;;;;11.77;76.86;93268.97;4986258;28;20035;-79
2022/05/10 01:21:42;;;;;;;9.52;4.75;;;;;;;11.76;77.46;93267.44;4968944;28;20046;-81
2022/05/10 01:24:46;;;;;;;12.00;5.05;;;;;;;11.75;77.34;93263.22;5000952;28;20463;-80
2022/05/10 01:27:30;;;;;;;12.82;5.25;;;;;;;11.76;77.47;93267.44;5004924;28;20114;-81
2022/05/10 01:30:16;;;;;;;10.52;5.15;;;;;;;11.73;77.51;93257.50;5023459;28;20469;-80
2022/05/10 01:36:04;;;;;;;11.43;5.57;;;;;;;11.80;77.74;93268.44;5023975;28;20036;-80
2022/05/10 01:38:41;;;;;;;10.60;5.32;;;;;;;11.83;77.59;93267.91;5007661;28;20042;-79
2022/05/10 01:41:17;;;;;;;12.02;5.18;;;;;;;11.83;78.05;93257.41;5007164;28;20069;-79
2022/05/10 01:43:49;;;;;;;11.50;5.38;;;;;;;11.85;77.76;93262.38;5015020;28;20038;-80
2022/05/10 01:46:25;;;;;;;10.07;5.20;;;;;;;11.88;78.18;93265.25;4987283;28;20065;-81
2022/05/10 01:48:59;;;;;;;9.43;5.20;;;;;;;11.84;78.46;93255.56;4988354;28;20092;-80
2022/05/10 01:51:43;;;;;;;9.25;5.03;;;;;;;11.83;79.33;93252.16;5005732;28;20034;-81
2022/05/10 01:54:31;;;;;;;11.23;5.13;;;;;;;11.84;79.28;93253.75;5001482;28;20042;-81
2022/05/10 01:56:57;;;;;;;13.20;5.43;;;;;;;11.83;79.76;93259.25;5006871;28;20057;-82
2022/05/10 01:59:22;;;;;;;11.25;5.40;;;;;;;11.79;79.87;93261.63;5022534;28;20022;-82
2022/05/10 02:01:48;;;;;;;9.10;5.18;;;;;;;11.76;79.63;93256.16;5006224;28;20412;-81
2022/05/10 02:04:24;;;;;;;13.93;5.35;;;;;;;11.70;79.28;93247.53;5002370;28;20516;-82
2022/05/10 02:06:56;;;;;;;11.98;5.35;;;;;;;11.69;79.51;93245.22;5005464;28;20048;-82
2022/05/10 02:09:41;;;;;;;11.38;5.10;;;;;;;11.69;79.98;93245.97;5002910;28;20026;-80
2022/05/10 02:12:12;;;;;;;12.95;5.60;;;;;;;11.68;79.89;93249.66;5003506;28;20038;-81
2022/05/10 02:14:54;;;;;;;9.15;5.20;;;;;;;11.63;79.83;93250.47;5009803;28;20022;-80
2022/05/10 02:17:46;;;;;;;12.63;5.18;;;;;;;11.62;79.54;93246.28;5023871;28;20037;-81
2022/05/10 02:20:21;;;;;;;14.23;5.37;;;;;;;11.61;79.54;93251.78;5024054;28;20095;-80
2022/05/10 02:23:09;;;;;;;13.15;5.70;;;;;;;11.58;79.37;93245.25;5023253;28;20148;-80
2022/05/10 02:25:39;;;;;;;10.00;5.45;;;;;;;11.55;79.63;93242.41;4988288;28;20038;-81
2022/05/10 02:28:20;;;;;;;10.10;5.68;;;;;;;11.54;79.83;93249.47;5006669;28;20034;-81
2022/05/10 02:30:52;;;;;;;11.73;5.80;;;;;;;11.54;79.78;93249.47;5027417;28;20049;-80
2022/05/10 02:33:19;;;;;;;11.88;5.88;;;;;;;11.54;80.02;93246.88;5024297;28;20108;-81
2022/05/10 02:35:57;;;;;;;14.35;6.35;;;;;;;11.54;80.24;93239.00;4999075;28;20129;-80
2022/05/10 02:38:32;;;;;;;15.82;6.03;;;;;;;11.52;80.57;93240.31;5023053;28;20053;-81
2022/05/10 02:41:00;;;;;;;14.70;6.50;;;;;;;11.49;80.34;93225.16;5023276;28;20162;-81
2022/05/10 02:43:29;;;;;;;11.65;6.40;;;;;;;11.53;80.26;93237.44;5006246;28;20057;-81
2022/05/10 02:45:55;;;;;;;13.75;6.43;;;;;;;11.57;80.14;93238.47;5003728;28;20029;-81
2022/05/10 02:48:31;;;;;;;14.07;6.47;;;;;;;11.58;80.67;93239.25;5006251;28;20101;-82
2022/05/10 02:50:57;;;;;;;13.70;6.53;;;;;;;11.59;80.89;93235.56;5023983;28;20121;-82
2022/05/10 02:53:23;;;;;;;15.80;6.22;;;;;;;11.61;80.38;93233.44;5006520;28;20026;-81
2022/05/10 02:56:24;;;;;;;13.90;6.05;;;;;;;11.61;80.48;93228.19;4988093;28;20040;-80
2022/05/10 02:58:52;;;;;;;23.50;6.68;;;;;;;11.61;80.53;93228.97;5009229;28;20061;-80
2022/05/10 03:01:30;;;;;;;16.35;6.28;;;;;;;11.61;80.43;93228.19;5006399;28;20038;-80
2022/05/10 03:03:55;;;;;;;15.18;6.63;;;;;;;11.56;80.79;93229.03;5023973;28;20038;-80
2022/05/10 03:06:24;;;;;;;15.05;5.82;;;;;;;11.56;81.09;93238.72;4988937;28;20061;-80
2022/05/10 03:08:55;;;;;;;13.43;6.13;;;;;;;11.54;81.11;93235.59;5022552;28;20042;-79
2022/05/10 03:11:20;;;;;;;11.43;6.53;;;;;;;11.48;81.28;93229.59;5005940;28;20042;-81
2022/05/10 03:13:47;;;;;;;14.23;6.78;;;;;;;11.49;81.30;93235.63;4973874;28;20046;-81
2022/05/10 03:16:16;;;;;;;14.60;6.28;;;;;;;11.40;81.33;93228.34;5007958;28;20098;-80
2022/05/10 03:18:42;;;;;;;13.68;6.68;;;;;;;11.41;81.30;93232.53;4988079;28;20041;-79
2022/05/10 03:21:09;;;;;;;14.65;7.05;;;;;;;11.39;81.56;93236.47;5005134;28;20034;-80
2022/05/10 03:23:35;;;;;;;16.55;6.57;;;;;;;11.33;81.88;93233.13;4989459;28;20054;-79
2022/05/10 03:26:01;;;;;;;18.83;7.13;;;;;;;11.30;81.76;93238.88;5006232;28;20465;-81
2022/05/10 03:28:35;;;;;;;18.05;7.82;;;;;;;11.27;81.46;93236.81;4990999;28;20085;-80
2022/05/10 03:31:03;;;;;;;16.50;6.95;;;;;;;11.28;81.82;93240.22;5002836;28;20507;-81
2022/05/10 03:33:28;;;;;;;19.20;7.43;;;;;;;11.28;81.60;93238.41;5005397;28;20117;-79
2022/05/10 03:35:54;;;;;;;14.55;6.90;;;;;;;11.23;81.50;93230.53;5005843;28;20046;-81
2022/05/10 03:38:20;;;;;;;14.68;7.70;;;;;;;11.21;81.63;93224.78;5004407;28;20038;-80
2022/05/10 03:40:46;;;;;;;13.25;7.22;;;;;;;11.25;81.67;93233.69;5013899;28;20038;-80
2022/05/10 03:43:11;;;;;;;15.68;7.03;;;;;;;11.26;81.70;93232.63;5006496;28;20034;-81
2022/05/10 03:45:37;;;;;;;14.48;6.90;;;;;;;11.25;81.62;93236.31;5006989;28;20046;-80
2022/05/10 03:48:04;;;;;;;14.98;7.35;;;;;;;11.24;81.47;93230.28;4989444;28;20042;-79
2022/05/10 03:50:30;;;;;;;13.90;6.88;;;;;;;11.26;81.78;93237.88;5003570;28;20026;-79
2022/05/10 03:52:56;;;;;;;16.75;6.80;;;;;;;11.26;81.47;93227.41;5005680;28;20104;-80
2022/05/10 03:55:28;;;;;;;17.15;6.57;;;;;;;11.23;81.79;93218.22;5004633;28;20034;-81
2022/05/10 03:57:54;;;;;;;11.57;6.28;;;;;;;11.20;81.89;93220.63;4988579;28;20042;-81
2022/05/10 04:00:25;;;;;;;14.65;6.70;;;;;;;11.17;81.75;93224.56;5018645;28;20033;-82
2022/05/10 04:02:52;;;;;;;12.88;6.43;;;;;;;11.14;82.22;93219.06;5006225;28;20026;-81
2022/05/10 04:05:19;;;;;;;19.42;8.13;;;;;;;11.12;82.01;93213.31;5005759;28;20057;-80
2022/05/10 04:07:45;;;;;;;22.65;7.72;;;;;;;11.02;82.29;93201.84;5004946;28;20042;-80
2022/05/10 04:10:13;;;;;;;11.95;7.55;;;;;;;11.04;82.74;93212.84;5001783;28;20037;-81
2022/05/10 04:12:40;;;;;;;15.23;7.03;;;;;;;11.03;82.60;93213.09;4968013;28;20089;-83
2022/05/10 04:15:09;;;;;;;12.88;6.50;;;;;;;11.04;82.26;93218.06;4985437;28;20493;-82
2022/05/10 04:17:34;;;;;;;18.65;6.93;;;;;;;11.07;82.76;93216.75;4986854;28;20034;-82
2022/05/10 04:20:00;;;;;;;15.82;6.57;;;;;;;10.99;82.53;93205.00;4990985;28;20034;-81
2022/05/10 04:22:26;;;;;;;15.40;7.80;;;;;;;11.06;82.48;93222.28;5003668;28;20034;-81
2022/05/10 04:24:52;;;;;;;16.52;6.82;;;;;;;11.05;82.50;93218.84;5006346;28;20049;-81
2022/05/10 04:27:18;;;;;;;14.40;7.45;;;;;;;11.04;82.77;93215.47;4989202;28;20400;-80
2022/05/10 04:29:43;;;;;;;16.65;8.65;;;;;;;10.99;82.92;93207.63;5020751;28;20032;-81
2022/05/10 04:32:09;;;;;;;17.98;7.60;;;;;;;10.99;83.08;93199.78;4998006;28;20034;-80
2022/05/10 04:34:37;;;;;;;18.80;7.90;;;;;;;11.04;82.68;93215.47;5013134;28;20030;-78
2022/05/10 04:37:03;;;;;;;18.95;8.27;;;;;;;11.11;82.91;93209.13;4982334;28;20049;-81
2022/05/10 04:41:24;;;;;;;18.38;8.00;;;;;;;11.12;82.80;93202.84;4994188;28;20034;-81
2022/05/10 04:42:15;;;;;;;18.77;8.52;;;;;;;11.20;82.88;93212.75;4997248;28;20484;-81
2022/05/10 04:44:41;;;;;;;17.80;9.07;;;;;;;11.23;83.27;93218.22;4975839;28;20042;-81
2022/05/10 04:47:07;;;;;;;21.05;8.48;;;;;;;11.29;82.83;93224.22;4969727;28;20038;-79
2022/05/10 04:49:32;;;;;;;21.35;9.00;;;;;;;11.31;82.29;93224.72;4987069;28;20030;-80
2022/05/10 04:51:58;;;;;;;17.80;8.85;;;;;;;11.41;82.00;93229.91;5001270;28;20080;-76
2022/05/10 04:54:23;;;;;;;18.75;8.52;;;;;;;11.49;81.80;93228.56;5014454;28;20069;-82
2022/05/10 04:56:49;;;;;;;16.98;7.65;;;;;;;11.56;81.51;93225.63;5012001;28;20109;-77
2022/05/10 04:59:15;;;;;;;16.52;8.43;;;;;;;11.62;81.70;93229.78;5014187;28;20069;-79
2022/05/10 05:01:40;;;;;;;15.02;8.00;;;;;;;11.73;81.52;93228.66;5011157;28;20038;-81
2022/05/10 05:04:08;;;;;;;14.23;7.47;;;;;;;11.87;81.12;93229.59;5011734;28;20034;-77
2022/05/10 05:06:37;;;;;;;13.75;7.40;;;;;;;11.94;80.95;93231.13;4980244;28;20030;-79
2022/05/10 05:09:03;;;;;;;13.25;6.82;;;;;;;12.12;80.16;93232.28;4998691;28;20033;-78
2022/05/10 05:11:29;;;;;;;14.38;7.47;;;;;;;12.18;79.90;93237.22;5015262;28;20171;-77
2022/05/10 05:13:54;;;;;;;17.35;7.93;;;;;;;12.20;79.02;93227.19;5016675;28;20060;-78
2022/05/10 05:16:20;;;;;;;20.08;8.18;;;;;;;12.25;79.22;93237.66;5026181;28;20034;-78
2022/05/10 05:18:46;;;;;;;15.88;8.27;;;;;;;12.29;79.58;93238.69;4995151;28;20030;-77
2022/05/10 05:21:12;;;;;;;17.38;7.57;;;;;;;12.37;79.46;93239.13;4995062;28;20564;-78
2022/05/10 05:23:37;;;;;;;14.60;7.45;;;;;;;12.44;79.20;93234.31;5011758;28;20081;-78
2022/05/10 05:26:03;;;;;;;20.98;7.70;;;;;;;12.54;78.98;93238.66;5011899;28;20030;-76
2022/05/10 05:28:29;;;;;;;17.23;7.95;;;;;;;12.62;78.78;93232.81;5012166;28;20034;-77
2022/05/10 05:30:55;;;;;;;21.35;8.45;;;;;;;12.73;78.19;93241.38;4994342;28;20098;-76
2022/05/10 05:33:21;;;;;;;14.30;7.35;;;;;;;12.80;77.94;93229.44;4994296;28;20041;-77
2022/05/10 05:35:46;;;;;;;15.52;8.15;;;;;;;12.95;77.31;93239.00;4996458;28;20115;-77
2022/05/10 05:38:12;;;;;;;14.75;8.13;;;;;;;13.07;77.16;93236.72;4988588;28;20042;-77
2022/05/10 05:40:38;;;;;;;17.02;8.10;;;;;;;13.21;76.95;93241.28;5011244;28;20036;-77
2022/05/10 05:43:06;;;;;;;16.45;8.07;;;;;;;13.33;76.62;93229.31;5011262;28;20033;-77
2022/05/10 05:45:32;;;;;;;15.30;7.68;;;;;;;13.48;76.06;93235.41;5003704;28;20049;-77
2022/05/10 05:48:00;;;;;;;24.95;8.48;;;;;;;13.60;75.33;93235.78;5011809;28;20026;-77
2022/05/10 05:50:26;;;;;;;19.85;8.70;;;;;;;13.72;74.95;93235.34;4990788;28;20367;-77
2022/05/10 05:52:52;;;;;;;17.83;8.20;;;;;;;13.89;74.59;93238.22;5007056;28;20514;-78
2022/05/10 05:55:19;;;;;;;21.45;9.00;;;;;;;14.08;74.65;93237.41;4991814;28;20038;-77
2022/05/10 05:57:45;;;;;;;16.60;8.77;;;;;;;14.54;73.86;93234.75;4977958;28;20077;-77
2022/05/10 06:00:17;;;;;;;20.58;8.90;;;;;;;15.46;70.71;93236.63;4992252;28;20046;-77
2022/05/10 06:02:43;;;;;;;17.42;7.82;;;;;;;16.31;68.56;93234.13;4992817;28;20050;-78
2022/05/10 06:05:09;;;;;;;19.33;8.57;;;;;;;17.14;66.83;93231.66;4958810;28;20043;-78
2022/05/10 06:07:35;;;;;;;26.02;9.25;;;;;;;17.96;63.58;93236.38;5005240;28;20527;-79
2022/05/10 06:10:00;;;;;;;27.05;10.23;;;;;;;18.63;60.70;93237.66;5014393;28;20038;-79
2022/05/10 06:12:26;;;;;;;30.23;10.20;;;;;;;19.12;56.77;93225.59;5013522;28;20044;-78
2022/05/10 06:14:52;;;;;;;25.80;9.50;;;;;;;19.76;55.79;93229.84;4996247;28;20083;-78
2022/05/10 06:17:18;;;;;;;12.95;7.10;;;;;;;20.32;53.65;93226.09;4976136;28;20072;-78
2022/05/10 06:19:46;;;;;;;14.23;7.57;;;;;;;20.65;54.01;93235.91;5009970;28;20038;-78
2022/05/10 06:22:13;;;;;;;14.00;5.55;;;;;;;20.88;52.36;93223.00;5012916;28;20109;-79
2022/05/10 06:24:40;;;;;;;15.85;6.03;;;;;;;21.17;50.28;93224.66;5013933;28;20466;-78
2022/05/10 06:27:10;;;;;;;11.15;5.25;;;;;;;21.09;51.04;93228.19;5012322;28;20030;-78
2022/05/10 06:29:36;;;;;;;15.30;5.53;;;;;;;20.74;51.82;93233.97;5004027;28;20061;-78
2022/05/10 06:32:02;;;;;;;15.85;5.38;;;;;;;20.50;53.45;93230.09;4993805;28;20502;-78
2022/05/10 06:34:28;;;;;;;10.52;4.85;;;;;;;20.36;52.90;93232.31;5011900;28;20038;-78
2022/05/10 06:36:53;;;;;;;10.82;4.75;;;;;;;20.40;53.02;93230.53;5014342;28;20499;-78
2022/05/10 06:39:19;;;;;;;9.07;4.63;;;;;;;20.12;54.01;93228.44;4983078;28;20042;-78
2022/05/10 06:41:44;;;;;;;16.80;5.47;;;;;;;19.60;55.67;93225.44;4973940;28;20042;-78
2022/05/10 06:44:10;;;;;;;10.48;4.78;;;;;;;19.24;56.64;93238.16;4973790;28;20050;-77
2022/05/10 06:46:40;;;;;;;11.38;5.22;;;;;;;19.05;59.26;93237.78;4990798;28;20041;-77
2022/05/10 06:49:06;;;;;;;9.75;4.90;;;;;;;19.10;58.40;93227.78;4990812;28;20046;-78
2022/05/10 06:51:33;;;;;;;10.35;4.95;;;;;;;18.73;59.77;93234.63;4994529;28;20038;-78
2022/05/10 06:53:59;;;;;;;16.88;5.32;;;;;;;18.47;61.69;93235.50;4998876;28;20084;-79
2022/05/10 06:56:25;;;;;;;24.67;5.88;;;;;;;18.04;61.78;93233.75;4997829;28;20056;-78
2022/05/10 06:58:50;;;;;;;14.25;5.68;;;;;;;18.14;63.25;93240.56;4997411;28;20403;-77
2022/05/10 07:01:16;;;;;;;9.65;5.30;;;;;;;17.90;63.24;93233.13;4994297;28;20494;-77
2022/05/10 07:03:45;;;;;;;12.07;5.70;;;;;;;17.89;63.68;93234.22;5014852;28;20053;-78
2022/05/10 07:06:12;;;;;;;11.73;5.35;;;;;;;17.84;63.15;93231.72;5014012;28;20504;-77
2022/05/10 07:08:38;;;;;;;12.27;5.93;;;;;;;17.77;64.40;93234.06;5014517;28;20101;-77
2022/05/10 07:11:05;;;;;;;10.77;5.43;;;;;;;17.74;63.59;93230.13;4996472;28;20550;-78
2022/05/10 07:13:32;;;;;;;12.23;5.63;;;;;;;17.62;64.78;93235.28;5000309;28;20141;-78
2022/05/10 07:15:58;;;;;;;14.48;6.00;;;;;;;17.53;64.36;93239.81;5027638;28;20041;-78
2022/05/10 07:18:23;;;;;;;12.25;5.43;;;;;;;17.65;64.12;93237.31;5004414;28;20480;-78
2022/05/10 07:20:50;;;;;;;10.70;5.22;;;;;;;17.63;63.84;93242.13;5000483;28;20038;-78
2022/05/10 07:23:27;;;;;;;9.10;4.78;;;;;;;17.62;63.08;93248.53;4971164;28;20256;-78
2022/05/10 07:25:55;;;;;;;11.93;5.63;;;;;;;17.49;63.25;93239.63;4996913;28;20519;-78
2022/05/10 07:28:20;;;;;;;12.73;5.28;;;;;;;17.62;62.84;93240.59;5013906;28;20061;-76
2022/05/10 07:30:46;;;;;;;9.38;4.93;;;;;;;17.53;63.03;93240.56;5013787;28;20484;-77
2022/05/10 07:33:13;;;;;;;15.23;5.47;;;;;;;17.63;63.11;93245.56;5011625;28;20128;-78
2022/05/10 07:38:25;;;;;;;9.48;5.00;;;;;;;17.62;62.39;93243.22;4982603;28;20074;-78
2022/05/10 07:40:53;;;;;;;13.05;6.05;;;;;;;17.81;61.88;93246.38;4980404;28;20038;-77
2022/05/10 07:43:20;;;;;;;47.85;8.23;;;;;;;17.84;62.92;93244.97;5012349;28;20282;-76
2022/05/10 07:45:49;;;;;;;26.13;6.47;;;;;;;18.02;61.90;93240.44;4988666;28;20031;-77
2022/05/10 07:48:14;;;;;;;13.70;5.80;;;;;;;18.03;60.15;93245.41;4994318;28;20038;-76
2022/05/10 07:50:40;;;;;;;16.30;6.07;;;;;;;18.12;60.13;93241.97;4983541;28;20412;-78
2022/05/10 07:53:10;;;;;;;17.55;6.40;;;;;;;17.92;61.84;93246.81;4978462;28;20034;-80
2022/05/10 07:55:37;;;;;;;18.95;5.63;;;;;;;18.10;60.77;93248.38;5023434;28;20064;-79
2022/05/10 07:58:06;;;;;;;9.93;5.10;;;;;;;18.30;60.97;93251.44;5022473;28;20042;-80
2022/05/10 08:00:37;;;;;;;14.95;6.00;;;;;;;18.25;60.24;93248.97;5004892;28;20038;-79
2022/05/10 08:03:09;;;;;;;14.50;5.80;;;;;;;17.99;60.92;93241.84;5004209;28;20042;-78
2022/05/10 08:05:34;;;;;;;15.95;5.72;;;;;;;18.04;58.83;93239.03;5023399;28;20037;-79
2022/05/10 08:08:00;;;;;;;15.00;5.68;;;;;;;18.01;62.34;93244.97;5005579;28;20522;-79
2022/05/10 08:10:26;;;;;;;13.52;5.57;;;;;;;17.96;61.76;93244.34;5023234;28;20048;-79
2022/05/10 08:12:51;;;;;;;8.55;4.32;;;;;;;18.16;60.15;93251.63;5005199;28;20044;-79
2022/05/10 08:15:17;;;;;;;13.57;5.30;;;;;;;18.30;62.06;93251.44;4990649;28;20073;-79
2022/05/10 08:17:42;;;;;;;19.95;5.70;;;;;;;18.36;58.99;93252.06;4986804;28;20042;-79
2022/05/10 08:20:10;;;;;;;10.35;5.72;;;;;;;18.28;58.12;93249.13;4985588;28;20061;-80
2022/05/10 08:22:36;;;;;;;10.75;4.78;;;;;;;18.46;58.87;93249.06;4986563;28;20041;-79
2022/05/10 08:25:03;;;;;;;13.90;4.85;;;;;;;18.62;57.88;93249.34;5004314;28;20042;-79
2022/05/10 08:27:28;;;;;;;12.70;5.28;;;;;;;18.48;56.65;93246.88;5003168;28;20275;-79
2022/05/10 08:29:54;;;;;;;16.90;4.72;;;;;;;18.27;57.81;93247.56;4986444;28;20061;-78
2022/05/10 08:32:20;;;;;;;8.57;4.38;;;;;;;18.39;57.53;93243.47;4985856;28;20050;-78
2022/05/10 08:34:45;;;;;;;8.68;4.57;;;;;;;18.54;55.32;93244.84;5004739;28;20454;-80
2022/05/10 08:37:11;;;;;;;11.10;5.20;;;;;;;18.72;54.97;93246.34;4986344;28;20122;-79
2022/05/10 08:39:36;;;;;;;11.13;5.05;;;;;;;18.48;51.95;93252.97;5003188;28;20061;-79
2022/05/10 08:42:19;;;;;;;14.00;5.28;;;;;;;18.40;52.90;93248.47;4985698;28;20064;-81
2022/05/10 08:44:51;;;;;;;10.70;5.00;;;;;;;18.48;55.45;93245.00;4986136;28;20041;-81
2022/05/10 08:47:17;;;;;;;11.40;4.63;;;;;;;18.66;57.49;93247.59;4972550;28;20530;-80
2022/05/10 08:49:57;;;;;;;14.32;5.30;;;;;;;18.67;56.45;93243.88;5023087;28;20030;-80
2022/05/10 08:52:30;;;;;;;13.25;5.28;;;;;;;18.55;55.97;93244.53;5023071;28;20034;-79
2022/05/10 08:54:56;;;;;;;13.85;6.03;;;;;;;18.63;56.15;93237.66;5004626;28;20034;-79
2022/05/10 08:57:48;;;;;;;14.55;6.78;;;;;;;18.62;55.63;93238.72;5022512;28;20041;-78
2022/05/10 09:00:32;;;;;;;15.75;6.88;;;;;;;18.51;56.28;93235.66;4986261;28;20459;-79
2022/05/10 09:03:05;;;;;;;16.25;6.78;;;;;;;18.72;55.65;93230.44;5002835;28;20488;-80
2022/05/10 09:05:37;;;;;;;14.10;7.00;;;;;;;18.82;56.15;93224.03;5003406;28;20049;-79
2022/05/10 09:08:28;;;;;;;13.18;6.15;;;;;;;18.70;56.08;93237.94;5004310;28;20061;-78
2022/05/10 09:10:59;;;;;;;16.92;6.22;;;;;;;18.75;54.95;93231.66;5005586;28;20038;-81
2022/05/10 09:13:25;;;;;;;13.50;6.00;;;;;;;18.90;53.99;93231.94;5022995;28;20077;-81
2022/05/10 09:15:55;;;;;;;13.77;6.03;;;;;;;18.91;54.31;93225.56;5022829;28;20072;-80
2022/05/10 09:18:29;;;;;;;17.63;7.70;;;;;;;19.00;52.73;93232.69;5039994;28;20029;-81
2022/05/10 09:21:23;;;;;;;17.88;6.75;;;;;;;19.23;53.92;93226.00;5020947;28;20034;-80
2022/05/10 09:23:58;;;;;;;16.55;7.40;;;;;;;19.19;53.08;93227.75;5002756;28;20053;-80
2022/05/10 09:26:31;;;;;;;16.30;8.02;;;;;;;19.25;53.19;93231.78;5021195;28;20048;-80
2022/05/10 09:29:05;;;;;;;21.17;9.07;;;;;;;19.41;54.47;93221.38;5004964;28;20034;-80
2022/05/10 09:37:34;;;;;;;17.23;7.45;;;;;;;19.51;55.51;93217.53;5000728;28;20038;-78
2022/05/10 09:40:07;;;;;;;19.45;7.05;;;;;;;19.52;55.73;93211.91;4975031;28;20117;-79
2022/05/10 09:42:35;;;;;;;21.25;7.80;;;;;;;19.70;54.36;93215.25;5002431;28;20038;-80
2022/05/10 09:45:20;;;;;;;15.23;7.30;;;;;;;19.51;56.02;93212.22;4984442;28;20491;-80
2022/05/10 09:48:08;;;;;;;14.05;7.82;;;;;;;19.47;54.34;93206.00;5002574;28;20094;-79
2022/05/10 09:50:37;;;;;;;17.30;8.38;;;;;;;19.23;53.75;93207.44;4983698;28;20048;-79
2022/05/10 09:53:20;;;;;;;16.70;8.13;;;;;;;19.61;54.39;93195.91;5017964;28;20103;-81
2022/05/10 09:56:26;;;;;;;18.85;8.25;;;;;;;19.68;50.41;93206.78;5020977;28;20040;-80
2022/05/10 09:58:57;;;;;;;15.45;8.05;;;;;;;19.63;52.57;93204.31;5020972;28;20504;-80
2022/05/10 10:01:38;;;;;;;18.40;9.60;;;;;;;19.84;52.34;93200.91;5019655;28;20041;-80
2022/05/10 10:04:28;;;;;;;22.05;9.15;;;;;;;19.59;51.31;93189.34;5001403;28;20400;-79
2022/05/10 10:07:13;;;;;;;23.25;9.30;;;;;;;20.01;53.43;93195.41;5001097;28;20038;-80
2022/05/10 10:09:48;;;;;;;16.88;8.05;;;;;;;20.21;51.31;93195.72;4984318;28;20047;-80
2022/05/10 10:12:33;;;;;;;18.85;9.30;;;;;;;20.00;50.56;93201.84;4968960;28;20133;-80
2022/05/10 10:15:01;;;;;;;22.00;9.88;;;;;;;20.14;51.46;93197.00;4983567;28;20408;-80
2022/05/10 10:17:37;;;;;;;26.90;9.77;;;;;;;20.01;50.24;93192.00;5000625;28;20026;-79
2022/05/10 10:20:22;;;;;;;16.25;8.40;;;;;;;19.99;50.69;93200.28;5001109;28;20042;-79
2022/05/10 10:22:51;;;;;;;18.98;9.27;;;;;;;20.02;49.33;93198.84;5001983;28;20058;-80
2022/05/10 10:25:25;;;;;;;20.88;9.48;;;;;;;20.07;51.05;93191.47;4983329;28;20291;-80
2022/05/10 10:28:05;;;;;;;18.92;9.38;;;;;;;20.32;52.76;93194.19;5000426;28;20054;-80
2022/05/10 10:30:37;;;;;;;20.48;9.27;;;;;;;20.18;50.45;93199.81;5000454;28;20034;-78
2022/05/10 10:33:22;;;;;;;25.42;10.77;;;;;;;20.31;49.89;93192.59;4983501;28;20046;-79
2022/05/10 10:36:02;;;;;;;22.17;9.60;;;;;;;20.58;50.17;93200.03;5000544;28;20042;-80
2022/05/10 10:38:50;;;;;;;28.23;11.32;;;;;;;20.64;49.14;93191.81;4983522;28;20041;-80
2022/05/10 10:41:27;;;;;;;23.50;10.10;;;;;;;20.63;49.97;93190.28;4983881;28;20076;-80
2022/05/10 10:44:18;;;;;;;23.00;9.27;;;;;;;20.67;50.20;93189.28;4984498;28;20121;-80
2022/05/10 10:47:06;;;;;;;20.43;10.57;;;;;;;20.56;51.30;93196.91;4981824;28;20504;-79
2022/05/10 10:49:44;;;;;;;24.92;10.55;;;;;;;20.97;50.61;93189.06;5001047;28;20038;-79
2022/05/10 10:52:13;;;;;;;20.73;10.93;;;;;;;20.75;50.80;93185.72;4983243;28;20487;-80
2022/05/10 10:54:39;;;;;;;26.88;11.82;;;;;;;20.79;49.69;93183.19;5002185;28;20045;-79
2022/05/10 10:57:33;;;;;;;30.83;12.20;;;;;;;20.68;51.00;93179.41;5002308;28;20030;-81
2022/05/10 11:00:16;;;;;;;27.23;11.18;;;;;;;20.42;51.59;93183.09;5003191;28;20037;-80
2022/05/10 11:02:56;;;;;;;26.58;12.77;;;;;;;19.72;51.76;93170.53;5021761;28;20051;-80
2022/05/10 11:05:29;;;;;;;32.47;13.20;;;;;;;19.66;52.48;93171.81;5018856;28;20034;-78
2022/05/10 11:08:01;;;;;;;28.65;13.00;;;;;;;19.99;53.03;93172.94;5020583;28;20034;-80
2022/05/10 11:11:04;;;;;;;29.77;13.98;;;;;;;20.28;51.74;93172.00;5018911;28;20057;-80
2022/05/10 11:13:52;;;;;;;30.33;13.32;;;;;;;20.53;51.87;93173.59;5020566;28;20030;-79
2022/05/10 11:16:45;;;;;;;35.53;13.93;;;;;;;20.59;51.98;93166.97;4999626;28;20057;-79
2022/05/10 11:19:14;;;;;;;33.38;13.55;;;;;;;20.63;51.64;93159.13;5022927;28;20042;-79
2022/05/10 11:21:55;;;;;;;25.67;12.60;;;;;;;20.69;51.83;93157.81;5040060;28;20451;-80
2022/05/10 11:24:34;;;;;;;28.70;14.70;;;;;;;20.81;50.76;93151.69;5039104;28;20080;-79
2022/05/10 11:27:28;;;;;;;35.75;13.93;;;;;;;20.87;50.12;93153.00;5028394;28;20049;-78
2022/05/10 11:30:15;;;;;;;28.38;14.27;;;;;;;20.58;49.79;93154.81;5002504;28;20504;-77
2022/05/10 11:33:00;;;;;;;25.77;11.43;;;;;;;20.84;49.94;93147.59;5002012;28;20052;-81
2022/05/10 11:35:32;;;;;;;29.95;13.35;;;;;;;20.85;50.77;93152.59;5020960;28;20065;-81
2022/05/10 11:37:58;;;;;;;31.20;12.90;;;;;;;20.89;49.58;93144.69;5003720;28;20042;-80
2022/05/10 11:40:51;;;;;;;32.67;15.60;;;;;;;20.43;51.40;93150.09;5024508;28;20053;-79
2022/05/10 11:43:54;;;;;;;26.08;13.38;;;;;;;20.15;52.17;93142.75;5023958;28;20585;-80
2022/05/10 11:46:31;;;;;;;30.55;15.55;;;;;;;19.77;52.39;93143.00;5022123;28;20038;-77
2022/05/10 11:49:03;;;;;;;30.92;14.27;;;;;;;19.87;52.07;93139.16;5012975;28;20508;-78
2022/05/10 11:51:46;;;;;;;34.40;14.07;;;;;;;20.01;52.11;93134.31;4992589;28;20026;-77
2022/05/10 11:54:30;;;;;;;22.73;11.73;;;;;;;20.49;50.86;93145.34;5013986;28;20125;-77
2022/05/10 11:56:58;;;;;;;28.73;13.10;;;;;;;20.69;51.04;93125.09;5000974;28;20033;-77
2022/05/10 11:59:27;;;;;;;26.45;12.38;;;;;;;20.87;50.05;93134.38;4983297;28;20050;-77